Time;durP1;ratioP1;P1;durP2;ratioP2;P2;SDS_P1;SDS_P2;PMS_P1;PMS_P2;Temp;Humidity;BMP_temperature;BMP_pressure;BME280_temperature;BME280_humidity;BME280_pressure;Samples;Min_cycle;Max_cycle;Signal;HPM_P1;HPM_P2
2021/03/28 00:00:24;;;;;;;;;50.50;45.00;;;;;7.43;72.65;102258.97;5142547;27;11480;-75
2021/03/28 00:03:21;;;;;;;;;51.00;44.50;;;;;7.54;72.11;102251.59;5148019;27;11513;-75
2021/03/28 00:06:17;;;;;;;;;56.75;48.00;;;;;7.60;72.44;102247.75;5144737;27;11478;-74
2021/03/28 00:09:39;;;;;;;;;52.25;45.25;;;;;7.70;71.50;102239.50;5145478;27;11462;-75
2021/03/28 00:12:38;;;;;;;;;45.75;42.25;;;;;7.76;71.95;102246.66;5145752;27;11594;-75
2021/03/28 00:15:40;;;;;;;;;50.25;45.25;;;;;7.86;72.18;102245.84;5144056;27;11587;-74
2021/03/28 00:18:58;;;;;;;;;54.75;46.50;;;;;7.72;73.45;102222.69;5145138;27;11502;-74
2021/03/28 00:21:54;;;;;;;;;59.25;45.50;;;;;7.85;73.75;102200.09;5146992;27;11502;-74
2021/03/28 00:24:41;;;;;;;;;50.00;44.00;;;;;7.90;74.25;102204.78;5146052;27;13462;-75
2021/03/28 00:27:48;;;;;;;;;59.50;49.50;;;;;7.84;74.60;102214.16;5142860;27;11511;-75
2021/03/28 00:30:44;;;;;;;;;60.50;48.00;;;;;8.03;74.31;102218.81;5147201;27;11483;-76
2021/03/28 00:33:45;;;;;;;;;55.50;44.75;;;;;8.04;74.45;102214.13;5131243;27;11506;-76
2021/03/28 00:37:01;;;;;;;;;53.50;45.00;;;;;8.19;73.66;102221.56;5131771;27;11486;-75
2021/03/28 00:40:01;;;;;;;;;40.00;38.25;;;;;8.24;73.96;102221.56;5144387;27;11000;-76
2021/03/28 00:43:22;;;;;;;;;53.75;45.00;;;;;8.21;74.23;102224.91;5136459;27;11000;-75
2021/03/28 00:46:35;;;;;;;;;50.25;45.00;;;;;8.03;75.15;102229.03;5145049;27;11515;-75
2021/03/28 00:49:41;;;;;;;;;53.00;43.25;;;;;8.12;74.38;102230.09;5146181;27;11481;-76
2021/03/28 00:52:54;;;;;;;;;46.25;42.50;;;;;8.02;75.03;102241.97;5131011;27;11512;-76
2021/03/28 00:55:57;;;;;;;;;45.25;41.50;;;;;7.90;75.74;102246.09;5134812;27;11515;-76
2021/03/28 00:58:49;;;;;;;;;52.00;45.25;;;;;7.75;76.31;102241.44;5144062;27;11507;-76
2021/03/28 01:02:20;;;;;;;;;50.75;44.75;;;;;7.69;75.80;102234.25;5145635;27;12346;-76
2021/03/28 01:05:35;;;;;;;;;49.25;44.00;;;;;7.61;75.50;102237.56;5131809;27;11516;-76
2021/03/28 01:08:50;;;;;;;;;43.50;41.00;;;;;7.65;75.48;102235.91;5144707;27;11480;-75
2021/03/28 01:11:41;;;;;;;;;55.50;45.50;;;;;7.60;75.15;102238.66;5126816;27;11520;-76
2021/03/28 01:14:55;;;;;;;;;49.50;45.00;;;;;7.50;75.31;102234.75;5144487;27;11704;-75
2021/03/28 01:18:00;;;;;;;;;45.25;40.75;;;;;7.58;74.66;102235.34;5130238;27;11131;-76
2021/03/28 01:21:09;;;;;;;;;46.75;42.50;;;;;7.36;74.42;102238.31;5143649;27;11502;-75
2021/03/28 01:24:29;;;;;;;;;49.25;44.75;;;;;7.29;74.55;102230.34;5128813;27;11518;-76
2021/03/28 01:27:31;;;;;;;;;51.50;45.00;;;;;7.28;74.36;102236.09;5129548;27;12306;-74
2021/03/28 01:30:49;;;;;;;;;57.00;44.75;;;;;7.19;74.23;102235.78;5127488;27;11487;-74
2021/03/28 01:33:51;;;;;;;;;49.50;41.50;;;;;7.12;73.96;102232.47;5122249;27;11505;-76
2021/03/28 01:37:13;;;;;;;;;39.50;39.00;;;;;7.09;74.33;102233.03;5140139;27;11547;-76
2021/03/28 01:40:23;;;;;;;;;50.25;43.25;;;;;6.97;74.11;102247.00;5144007;27;11513;-76
2021/03/28 01:43:54;;;;;;;;;56.75;46.25;;;;;6.82;74.33;102235.91;5129526;27;11526;-76
2021/03/28 01:46:34;;;;;;;;;22.75;20.50;;;;;6.74;74.36;102244.69;5123924;27;11533;-75
2021/03/28 01:49:56;;;;;;;;;44.00;42.00;;;;;6.80;73.57;102247.19;5128068;27;12291;-74
2021/03/28 01:53:20;;;;;;;;;57.25;47.00;;;;;6.59;74.58;102242.69;5131777;27;11486;-76
2021/03/28 01:56:38;;;;;;;;;50.25;43.00;;;;;6.53;74.24;102244.59;5128767;27;11615;-76
2021/03/28 02:00:07;;;;;;;;;51.50;46.00;;;;;6.43;75.38;102246.44;5142081;27;11508;-76
2021/03/28 02:03:25;;;;;;;;;46.75;42.50;;;;;6.30;75.51;102245.81;5143802;27;12392;-76
2021/03/28 02:06:39;;;;;;;;;47.00;41.25;;;;;6.43;74.37;102249.19;5128198;27;11495;-75
2021/03/28 02:09:44;;;;;;;;;52.25;46.00;;;;;6.21;75.69;102243.81;5128502;27;11541;-75
2021/03/28 02:12:58;;;;;;;;;54.25;47.25;;;;;6.16;75.75;102249.28;5129810;27;11615;-75
2021/03/28 02:16:09;;;;;;;;;51.50;45.75;;;;;6.08;76.33;102247.84;5140307;27;11517;-74
2021/03/28 02:19:14;;;;;;;;;49.50;41.75;;;;;6.07;75.95;102247.03;5142547;27;11589;-75
2021/03/28 02:22:40;;;;;;;;;54.25;46.50;;;;;5.99;75.90;102249.44;5142790;27;12301;-75
2021/03/28 02:26:01;;;;;;;;;56.50;46.75;;;;;5.85;76.50;102254.50;5131319;27;11626;-75
2021/03/28 02:29:09;;;;;;;;;49.75;43.75;;;;;5.79;77.10;102261.03;5142603;27;11629;-75
2021/03/28 02:32:34;;;;;;;;;48.00;43.50;;;;;5.59;77.44;102248.75;5140212;27;11500;-75
2021/03/28 02:36:13;;;;;;;;;63.00;52.33;;;;;5.78;77.06;102257.44;5137368;27;11574;-76
2021/03/28 02:39:19;;;;;;;;;62.00;50.33;;;;;5.72;76.41;102258.47;5141762;27;11517;-75
2021/03/28 02:42:22;;;;;;;;;61.00;49.00;;;;;5.59;76.34;102258.91;5141969;27;11495;-75
2021/03/28 02:45:22;;;;;;;;;68.00;55.00;;;;;5.51;77.12;102262.94;5133857;27;11612;-75
2021/03/28 02:48:56;;;;;;;;;59.00;50.33;;;;;5.60;77.18;102260.56;5118971;27;11539;-75
2021/03/28 02:52:02;;;;;;;;;53.33;46.67;;;;;5.66;76.45;102256.78;5143126;27;11634;-75
2021/03/28 02:55:26;;;;;;;;;63.75;54.00;;;;;5.66;75.94;102266.94;5143580;27;11488;-75
2021/03/28 02:58:15;;;;;;;;;54.75;47.00;;;;;5.41;76.10;102265.56;5143963;27;11490;-76
2021/03/28 03:01:50;;;;;;;;;51.33;47.00;;;;;5.58;75.89;102262.72;5142135;27;11484;-75
2021/03/28 03:04:55;;;;;;;;;47.25;43.50;;;;;5.25;76.51;102264.59;5141092;27;11520;-75
2021/03/28 03:08:12;;;;;;;;;56.00;47.33;;;;;5.35;76.98;102276.75;5143289;27;11651;-75
2021/03/28 03:12:02;;;;;;;;;56.50;45.75;;;;;5.33;77.26;102270.69;5141893;27;11565;-75
2021/03/28 03:15:22;;;;;;;;;53.00;47.00;;;;;5.22;77.18;102281.56;5061092;28;11644;-75
2021/03/28 03:18:40;;;;;;;;;54.33;47.67;;;;;5.19;76.63;102290.28;5141012;27;11532;-75
2021/03/28 03:21:54;;;;;;;;;63.33;52.67;;;;;5.23;76.58;102291.44;5143566;27;12194;-75
2021/03/28 03:24:56;;;;;;;;;66.33;55.00;;;;;5.33;76.75;102289.91;5129018;27;11515;-75
2021/03/28 03:28:31;;;;;;;;;61.00;53.00;;;;;5.22;76.00;102295.28;5141038;27;8846;-75
2021/03/28 03:31:41;;;;;;;;;59.33;48.67;;;;;5.17;76.35;102306.19;5128436;27;8910;-75
2021/03/28 03:34:52;;;;;;;;;70.33;57.00;;;;;5.18;76.00;102307.84;5127201;27;11511;-74
2021/03/28 03:38:17;;;;;;;;;74.67;60.67;;;;;5.14;76.14;102303.97;5131320;27;8819;-75
2021/03/28 03:41:22;;;;;;;;;72.00;58.33;;;;;4.92;77.22;102303.13;5140173;27;8817;-75
2021/03/28 03:44:46;;;;;;;;;73.00;60.00;;;;;4.94;76.91;102309.16;5145942;27;8831;-75
2021/03/28 03:48:00;;;;;;;;;71.67;60.00;;;;;4.96;76.71;102307.00;5133281;27;8932;-74
2021/03/28 03:51:05;;;;;;;;;68.00;57.67;;;;;4.94;76.80;102309.16;5144173;27;8837;-75
2021/03/28 03:54:33;;;;;;;;;59.00;49.33;;;;;4.95;77.33;102310.81;5143075;27;8835;-75
2021/03/28 03:57:45;;;;;;;;;75.67;61.67;;;;;4.95;77.30;102317.13;5145053;27;8843;-75
2021/03/28 04:00:22;;;;;;;;;80.00;62.33;;;;;5.01;77.07;102315.31;5146820;27;8837;-75
2021/03/28 04:03:33;;;;;;;;;73.67;57.67;;;;;4.98;77.06;102330.34;5144518;27;8847;-74
2021/03/28 04:06:30;;;;;;;;;75.00;61.33;;;;;4.88;78.21;102329.38;5148211;27;8841;-76
2021/03/28 04:09:20;;;;;;;;;66.00;51.00;;;;;4.89;77.75;102331.84;5134458;27;8841;-75
2021/03/28 04:11:59;;;;;;;;;75.00;61.00;;;;;4.95;77.61;102333.59;5125850;27;8829;-76
2021/03/28 04:15:32;;;;;;;;;79.67;65.00;;;;;5.08;77.55;102346.13;5134103;27;8948;-75
2021/03/28 04:18:42;;;;;;;;;75.33;62.67;;;;;4.94;78.01;102336.59;5144775;27;8999;-75
2021/03/28 04:21:59;;;;;;;;;91.67;69.33;;;;;5.13;77.59;102348.91;5145112;27;8874;-75
2021/03/28 04:25:13;;;;;;;;;97.67;81.67;;;;;5.22;78.09;102355.63;5106432;27;8893;-76
2021/03/28 04:28:17;;;;;;;;;96.00;75.33;;;;;5.20;78.14;102351.47;5105021;28;8829;-76
2021/03/28 04:32:03;;;;;;;;;107.00;97.00;;;;;5.40;77.90;102361.88;5104242;28;8934;-75
2021/03/28 04:35:12;;;;;;;;;117.00;101.00;;;;;5.64;78.05;102365.19;5092328;28;8884;-76
2021/03/28 04:38:15;;;;;;;;;97.67;78.67;;;;;5.69;78.04;102366.06;5106442;28;8823;-74
2021/03/28 04:41:30;;;;;;;;;114.00;99.67;;;;;5.79;77.91;102371.69;5104437;28;8849;-75
2021/03/28 04:44:48;;;;;;;;;180.75;147.00;;;;;5.81;78.09;102365.91;5101540;28;8815;-74
2021/03/28 04:47:59;;;;;;;;;216.75;181.00;;;;;6.02;77.71;102359.59;5106833;28;8869;-74
2021/03/28 04:51:33;;;;;;;;;230.75;183.75;;;;;6.11;77.70;102362.69;5103617;28;9610;-74
2021/03/28 04:54:47;;;;;;;;;257.75;194.75;;;;;6.23;77.39;102357.88;5101464;28;8819;-75
2021/03/28 04:57:58;;;;;;;;;212.75;171.00;;;;;6.36;76.74;102364.81;5101487;28;8911;-74
2021/03/28 05:01:31;;;;;;;;;196.00;155.25;;;;;6.45;76.58;102357.78;5102210;28;8926;-74
2021/03/28 05:04:49;;;;;;;;;171.00;140.00;;;;;6.59;76.00;102369.13;5103750;28;8833;-74
2021/03/28 05:08:09;;;;;;;;;137.00;102.50;;;;;6.54;76.32;102367.19;5105327;28;8850;-74
2021/03/28 05:11:17;;;;;;;;;179.25;142.75;;;;;6.74;76.02;102361.00;5102300;28;8881;-76
2021/03/28 05:14:25;;;;;;;;;176.50;150.25;;;;;6.89;76.00;102357.53;5104641;28;8819;-76
2021/03/28 05:17:46;;;;;;;;;209.00;168.75;;;;;6.98;75.84;102353.22;5102591;28;8827;-75
2021/03/28 05:21:19;;;;;;;;;135.75;114.50;;;;;7.08;75.57;102358.75;5102016;28;8923;-76
2021/03/28 05:24:29;;;;;;;;;124.75;111.00;;;;;7.15;75.31;102353.03;5126803;27;8831;-76
2021/03/28 05:28:13;;;;;;;;;133.00;117.33;;;;;7.35;75.09;102361.34;5142255;27;8928;-75
2021/03/28 05:31:08;;;;;;;;;117.00;98.33;;;;;7.38;74.69;102366.34;5146307;27;8841;-76
2021/03/28 05:34:07;;;;;;;;;143.00;124.33;;;;;7.56;74.07;102372.47;5146688;27;8847;-74
2021/03/28 05:37:15;;;;;;;;;112.67;92.33;;;;;7.79;73.48;102375.56;5142548;27;8992;-75
2021/03/28 05:40:37;;;;;;;;;116.00;95.67;;;;;7.96;73.50;102378.06;5130294;27;8835;-75
2021/03/28 05:43:49;;;;;;;;;92.33;76.00;;;;;7.98;73.63;102378.66;5142456;27;8895;-76
2021/03/28 05:47:36;;;;;;;;;100.67;92.00;;;;;8.05;73.03;102387.50;5145449;27;8831;-76
2021/03/28 05:51:05;;;;;;;;;94.67;78.33;;;;;8.32;72.67;102386.41;5112648;27;8838;-76
2021/03/28 05:54:39;;;;;;;;;96.67;80.00;;;;;8.42;72.05;102382.84;5143053;27;8863;-75
2021/03/28 05:58:02;;;;;;;;;101.67;86.33;;;;;8.72;72.04;102390.31;5127279;27;8872;-76
2021/03/28 06:01:18;;;;;;;;;91.00;71.00;;;;;8.89;70.75;102390.81;5142131;27;8833;-75
2021/03/28 06:04:57;;;;;;;;;87.00;67.00;;;;;9.11;70.42;102399.63;5144141;27;8829;-76
2021/03/28 06:08:04;;;;;;;;;85.33;65.67;;;;;9.17;69.59;102398.50;5129583;27;8886;-76
2021/03/28 06:11:38;;;;;;;;;83.00;63.33;;;;;9.49;68.54;102394.53;5145604;27;8921;-76
2021/03/28 06:15:03;;;;;;;;;87.25;68.50;;;;;9.79;67.38;102403.81;5141033;27;11543;-76
2021/03/28 06:18:18;;;;;;;;;82.50;65.75;;;;;9.91;67.48;102402.38;5143040;27;11526;-77
2021/03/28 06:21:13;;;;;;;;;79.00;62.25;;;;;10.09;66.62;102406.41;5124459;27;11485;-77
2021/03/28 06:24:45;;;;;;;;;80.25;63.75;;;;;10.18;65.52;102407.44;5144456;27;11498;-77
2021/03/28 06:28:05;;;;;;;;;86.50;67.25;;;;;10.20;65.04;102415.47;5109827;27;11555;-75
2021/03/28 06:30:42;;;;;;;;;86.00;65.00;;;;;10.46;64.66;102405.06;5144884;27;11510;-75
2021/03/28 06:34:15;;;;;;;;;84.00;64.50;;;;;10.91;64.67;102417.69;5138707;27;11531;-76
2021/03/28 06:37:19;;;;;;;;;76.25;62.25;;;;;10.86;62.81;102423.28;5139006;27;11530;-76
2021/03/28 06:40:41;;;;;;;;;80.00;64.00;;;;;11.23;64.07;102421.81;5130805;27;11668;-76
2021/03/28 06:44:05;;;;;;;;;84.75;68.25;;;;;11.31;62.37;102429.47;5141934;27;11608;-77
2021/03/28 06:47:10;;;;;;;;;86.00;69.75;;;;;11.37;61.71;102431.06;5129118;27;11530;-77
2021/03/28 06:50:24;;;;;;;;;88.50;67.25;;;;;11.50;61.86;102424.84;5142727;27;11662;-77
2021/03/28 06:53:22;;;;;;;;;80.00;62.25;;;;;11.59;60.85;102430.56;5144260;27;11562;-77
2021/03/28 06:57:05;;;;;;;;;83.00;66.50;;;;;11.56;60.83;102431.13;5140789;27;11557;-77
2021/03/28 07:00:33;;;;;;;;;79.75;63.00;;;;;11.99;60.73;102428.41;5128376;27;11504;-77
2021/03/28 07:03:41;;;;;;;;;78.75;63.00;;;;;11.69;59.75;102419.31;5142649;27;11520;-77
2021/03/28 07:06:48;;;;;;;;;77.00;61.50;;;;;12.07;59.75;102430.50;5142990;27;11559;-76
2021/03/28 07:10:02;;;;;;;;;77.25;61.75;;;;;12.37;60.46;102426.47;5143065;27;11526;-77
2021/03/28 07:13:04;;;;;;;;;83.25;63.00;;;;;12.64;58.66;102426.56;5131715;27;11509;-75
2021/03/28 07:16:18;;;;;;;;;74.25;59.50;;;;;12.62;57.93;102425.22;5147520;27;11620;-76
2021/03/28 07:19:44;;;;;;;;;75.00;59.25;;;;;12.90;57.28;102421.41;5131725;27;11494;-76
2021/03/28 07:22:49;;;;;;;;;78.25;63.25;;;;;13.17;56.32;102417.84;5146438;27;11513;-76
2021/03/28 07:26:26;;;;;;;;;73.25;58.50;;;;;13.34;55.95;102420.91;5131292;27;11499;-75
2021/03/28 07:30:01;;;;;;;;;84.00;65.50;;;;;13.70;54.48;102427.69;5136427;27;11530;-75
2021/03/28 07:33:14;;;;;;;;;78.50;61.50;;;;;13.60;53.22;102426.78;5045113;27;11539;-76
2021/03/28 07:36:19;;;;;;;;;84.00;68.75;;;;;13.80;57.23;102424.69;5147695;27;11605;-76
2021/03/28 07:39:50;;;;;;;;;81.50;68.25;;;;;13.97;54.54;102433.22;5133758;27;11634;-76
2021/03/28 07:43:05;;;;;;;;;82.50;69.75;;;;;13.87;54.54;102427.88;5144788;27;11610;-76
2021/03/28 07:46:08;;;;;;;;;85.75;74.25;;;;;14.22;53.75;102422.66;5132286;27;11659;-75
2021/03/28 07:49:56;;;;;;;;;82.25;69.00;;;;;14.54;56.43;102419.69;5133461;27;11549;-76
2021/03/28 07:52:44;;;;;;;;;79.75;62.75;;;;;14.69;53.90;102426.84;5147828;27;11545;-75
2021/03/28 07:56:20;;;;;;;;;66.00;54.50;;;;;15.15;54.12;102426.47;5146263;27;11516;-76
2021/03/28 07:59:25;;;;;;;;;55.75;47.00;;;;;15.28;48.57;102424.72;5146845;27;11475;-75
2021/03/28 08:02:58;;;;;;;;;51.25;42.25;;;;;15.27;50.67;102428.66;5131988;27;10783;-75
2021/03/28 08:06:21;;;;;;;;;55.00;47.50;;;;;15.52;52.38;102427.13;5145686;27;10552;-77
2021/03/28 08:09:18;;;;;;;;;56.25;47.75;;;;;15.60;50.10;102417.13;5146560;27;10962;-76
2021/03/28 08:12:47;;;;;;;;;46.00;39.50;;;;;15.67;47.72;102423.91;5146433;27;10967;-76
2021/03/28 08:15:38;;;;;;;;;46.00;39.75;;;;;15.70;48.56;102423.25;5149301;27;10177;-76
2021/03/28 08:18:39;;;;;;;;;32.00;32.00;;;;;15.77;45.75;102415.25;5146893;27;10116;-76
2021/03/28 08:22:05;;;;;;;;;33.00;32.75;;;;;16.04;48.45;102424.50;5143274;27;9712;-75
2021/03/28 08:25:40;;;;;;;;;29.75;29.75;;;;;16.16;45.59;102421.88;5144108;27;9781;-76
2021/03/28 08:28:36;;;;;;;;;57.25;48.25;;;;;16.25;44.50;102424.66;5134204;27;9508;-78
2021/03/28 08:31:31;;;;;;;;;55.00;46.75;;;;;16.27;48.54;102419.59;5144766;27;10623;-77
2021/03/28 08:35:21;;;;;;;;;58.75;46.00;;;;;15.88;48.30;102417.75;5143670;27;10609;-77
2021/03/28 08:38:28;;;;;;;;;57.00;46.00;;;;;16.30;45.25;102418.94;5054238;28;10433;-77
2021/03/28 08:41:48;;;;;;;;;52.75;43.50;;;;;16.40;46.26;102419.41;5144286;27;10241;-77
2021/03/28 08:45:23;;;;;;;;;53.75;45.00;;;;;16.23;46.48;102413.84;5141404;27;10266;-77
2021/03/28 08:48:37;;;;;;;;;53.00;45.00;;;;;16.50;45.27;102423.06;5144994;27;10655;-77
2021/03/28 08:51:59;;;;;;;;;53.25;45.25;;;;;16.82;48.28;102421.72;5144807;27;10324;-76
2021/03/28 08:55:04;;;;;;;;;46.50;39.25;;;;;16.90;43.85;102409.69;5111668;27;10206;-77
2021/03/28 08:58:05;;;;;;;;;54.00;45.75;;;;;17.11;42.95;102415.41;5144209;27;10203;-76
2021/03/28 09:01:12;;;;;;;;;61.75;50.50;;;;;17.10;43.86;102413.75;5142604;27;10181;-76
2021/03/28 09:04:35;;;;;;;;;50.25;42.75;;;;;17.17;42.89;102419.63;5142875;27;10530;-75
2021/03/28 09:07:26;;;;;;;;;54.75;46.25;;;;;17.41;42.07;102413.50;5128675;27;10274;-75
2021/03/28 09:10:26;;;;;;;;;48.75;42.00;;;;;17.49;41.21;102412.63;5128875;27;10317;-75
2021/03/28 09:13:44;;;;;;;;;60.50;50.25;;;;;17.51;43.02;102402.72;5144577;27;10082;-77
2021/03/28 09:16:59;;;;;;;;;50.25;43.00;;;;;17.66;40.32;102403.31;5141179;27;10226;-76
2021/03/28 09:19:54;;;;;;;;;57.75;47.50;;;;;18.05;40.23;102400.13;5142409;27;9857;-77
2021/03/28 09:23:17;;;;;;;;;53.25;44.50;;;;;16.99;40.29;102404.09;5143223;27;10299;-76
2021/03/28 09:26:18;;;;;;;;;56.50;45.25;;;;;16.64;41.66;102404.16;5141864;27;10096;-79
2021/03/28 09:29:38;;;;;;;;;60.25;49.00;;;;;17.42;41.15;102399.16;5144988;27;10156;-76
2021/03/28 09:33:02;;;;;;;;;59.75;49.50;;;;;17.00;40.50;102386.97;5130139;27;10378;-77
2021/03/28 09:36:16;;;;;;;;;57.00;48.00;;;;;17.48;41.29;102385.78;5144061;27;10485;-77
2021/03/28 09:39:19;;;;;;;;;66.75;52.75;;;;;18.00;41.78;102377.09;5141558;27;10100;-76
2021/03/28 09:42:38;;;;;;;;;59.75;49.25;;;;;17.86;40.67;102380.16;5134062;27;10513;-75
2021/03/28 09:45:50;;;;;;;;;58.50;48.50;;;;;17.88;39.49;102377.03;5141837;27;10218;-76
2021/03/28 09:49:00;;;;;;;;;68.00;56.00;;;;;18.38;41.44;102373.31;5131019;27;9875;-77
2021/03/28 09:52:14;;;;;;;;;59.00;47.25;;;;;18.07;38.99;102374.56;5135604;27;10926;-77
2021/03/28 09:55:29;;;;;;;;;67.75;55.25;;;;;18.35;41.86;102372.03;5140559;27;10383;-77
2021/03/28 09:59:05;;;;;;;;;51.25;42.75;;;;;17.57;39.77;102366.19;5134811;27;11738;-78
2021/03/28 10:02:31;;;;;;;;;60.75;49.50;;;;;17.63;40.79;102373.19;5143001;27;10043;-79
2021/03/28 10:05:33;;;;;;;;;65.25;51.50;;;;;18.19;40.18;102366.25;5143044;27;10195;-77
2021/03/28 10:08:09;;;;;;;;;64.00;52.75;;;;;18.58;39.13;102375.28;5132202;27;10551;-77
2021/03/28 10:11:31;;;;;;;;;62.25;50.00;;;;;18.64;38.37;102356.28;5135348;27;10476;-77
2021/03/28 10:14:25;;;;;;;;;70.00;53.25;;;;;18.98;40.51;102361.50;5143252;27;10627;-77
2021/03/28 10:17:46;;;;;;;;;9.50;8.75;;;;;19.26;38.72;102352.44;5143330;27;10312;-77
2021/03/28 10:21:13;;;;;;;;;58.75;48.25;;;;;19.07;37.93;102347.38;5139801;27;10822;-78
2021/03/28 10:24:34;;;;;;;;;60.25;47.75;;;;;18.77;39.44;102339.16;5131095;27;9943;-76
2021/03/28 10:27:36;;;;;;;;;55.00;46.50;;;;;18.97;39.86;102347.84;5132768;27;9999;-79
2021/03/28 10:30:48;;;;;;;;;59.50;48.50;;;;;18.81;39.13;102342.09;5129375;27;10028;-79
2021/03/28 10:34:18;;;;;;;;;58.50;48.00;;;;;18.20;39.66;102341.88;5128314;27;10166;-79
2021/03/28 10:37:32;;;;;;;;;66.00;51.25;;;;;17.96;39.80;102337.78;5143223;27;10239;-78
2021/03/28 10:40:30;;;;;;;;;58.75;49.00;;;;;18.08;40.97;102339.81;5138519;27;11287;-77
2021/03/28 10:43:38;;;;;;;;;58.00;47.25;;;;;17.83;40.99;102336.06;5138530;27;10223;-76
2021/03/28 10:46:32;;;;;;;;;59.00;48.00;;;;;17.80;41.14;102336.75;5142958;27;10197;-77
2021/03/28 10:50:11;;;;;;;;;56.50;47.00;;;;;17.66;40.77;102344.56;5127693;27;9914;-75
2021/03/28 10:53:37;;;;;;;;;55.75;45.75;;;;;16.71;43.42;102337.41;5140842;27;10813;-78
2021/03/28 10:57:23;;;;;;;;;49.50;42.00;;;;;16.97;42.10;102334.56;5138117;27;10176;-77
2021/03/28 11:01:00;;;;;;;;;55.50;45.00;;;;;16.73;43.02;102332.34;5126766;27;10070;-76
2021/03/28 11:04:24;;;;;;;;;53.00;44.75;;;;;16.62;43.09;102333.78;5141046;27;10298;-76
2021/03/28 11:07:09;;;;;;;;;49.25;42.50;;;;;16.71;42.60;102331.81;5144101;27;10355;-76
2021/03/28 11:10:19;;;;;;;;;52.50;44.25;;;;;17.63;41.66;102325.63;5128835;27;10338;-78
2021/03/28 11:13:05;;;;;;;;;58.50;47.50;;;;;17.96;40.52;102318.19;5140043;27;10413;-76
2021/03/28 11:16:19;;;;;;;;;53.25;43.50;;;;;18.17;40.04;102328.53;5130305;27;10075;-77
2021/03/28 11:19:52;;;;;;;;;55.25;46.50;;;;;18.38;39.36;102320.94;5140952;27;10109;-77
2021/03/28 11:22:41;;;;;;;;;51.25;43.50;;;;;18.86;38.32;102317.47;5144554;27;10076;-75
2021/03/28 11:25:25;;;;;;;;;48.00;40.50;;;;;18.74;37.26;102319.44;5143820;27;9845;-77
2021/03/28 11:28:46;;;;;;;;;45.25;39.50;;;;;19.34;35.94;102315.03;5132203;27;9622;-76
2021/03/28 11:32:02;;;;;;;;;47.00;39.33;;;;;19.86;33.04;102314.25;5141346;27;9443;-76
2021/03/28 11:35:09;;;;;;;;;50.00;42.00;;;;;19.62;35.46;102321.56;5141129;27;8986;-77
2021/03/28 11:38:17;;;;;;;;;53.67;44.33;;;;;20.12;36.12;102314.66;5143352;27;9601;-77
2021/03/28 11:41:11;;;;;;;;;53.67;44.00;;;;;20.22;35.67;102318.94;5142188;27;9425;-78
2021/03/28 11:44:16;;;;;;;;;54.67;44.67;;;;;20.39;34.37;102315.81;5141697;27;9298;-79
2021/03/28 11:47:21;;;;;;;;;51.00;42.67;;;;;20.17;33.79;102316.41;5142536;27;9315;-77
2021/03/28 11:50:16;;;;;;;;;47.67;40.00;;;;;20.20;33.58;102316.47;5131354;27;9198;-77
2021/03/28 11:53:25;;;;;;;;;44.25;38.25;;;;;20.20;32.87;102310.88;5141793;27;9350;-77
2021/03/28 11:56:53;;;;;;;;;49.67;41.67;;;;;20.41;32.97;102307.84;5132376;27;8940;-78
2021/03/28 11:59:22;;;;;;;;;35.75;33.50;;;;;20.11;32.57;102315.81;5145684;27;9083;-78
2021/03/28 12:02:28;;;;;;;;;55.00;44.67;;;;;20.44;32.49;102307.16;5146524;27;8861;-79
2021/03/28 12:05:37;;;;;;;;;53.33;45.00;;;;;20.45;32.62;102300.34;5147991;27;9157;-79
2021/03/28 12:08:56;;;;;;;;;51.33;42.33;;;;;19.69;34.32;102296.53;5136513;27;9227;-78
2021/03/28 12:11:53;;;;;;;;;55.67;44.33;;;;;20.00;34.46;102295.84;5147742;27;9847;-77
2021/03/28 12:14:49;;;;;;;;;45.33;39.33;;;;;19.28;34.70;102297.63;5147186;27;9153;-77
2021/03/28 12:17:45;;;;;;;;;48.00;40.33;;;;;20.05;33.84;102293.97;5145209;27;8918;-75
2021/03/28 12:20:41;;;;;;;;;41.33;36.67;;;;;20.08;33.81;102296.84;5144570;27;9230;-77
2021/03/28 12:23:52;;;;;;;;;50.00;40.25;;;;;19.83;34.23;102292.50;5146491;27;9049;-77
2021/03/28 12:26:21;;;;;;;;;47.67;41.00;;;;;19.00;35.84;102297.50;5128354;27;8854;-77
2021/03/28 12:29:20;;;;;;;;;49.00;42.00;;;;;19.20;36.34;102295.75;5139535;27;8982;-78
2021/03/28 12:32:43;;;;;;;;;52.33;44.33;;;;;19.14;37.04;102297.16;5154536;27;9228;-78
2021/03/28 12:35:59;;;;;;;;;45.00;39.00;;;;;19.72;35.44;102292.19;5153873;27;9493;-78
2021/03/28 12:39:09;;;;;;;;;44.33;37.67;;;;;20.32;33.50;102287.53;5145454;27;9979;-78
2021/03/28 12:42:34;;;;;;;;;48.50;41.25;;;;;20.89;31.24;102283.44;5133794;27;9010;-78
2021/03/28 12:45:37;;;;;;;;;43.00;37.50;;;;;20.71;31.82;102277.38;5131459;27;8832;-77
2021/03/28 12:48:36;;;;;;;;;40.50;36.00;;;;;20.78;31.66;102276.75;5144001;27;8863;-76
2021/03/28 12:51:31;;;;;;;;;50.00;42.67;;;;;20.45;32.57;102291.09;5145983;27;9474;-79
2021/03/28 12:54:31;;;;;;;;;43.75;38.25;;;;;20.48;32.35;102288.41;5131263;27;8948;-78
2021/03/28 12:57:32;;;;;;;;;45.00;39.00;;;;;21.33;33.72;102278.53;5144701;27;8838;-79
2021/03/28 13:00:40;;;;;;;;;36.00;32.50;;;;;21.62;29.41;102276.31;5145082;27;8855;-78
2021/03/28 13:03:47;;;;;;;;;33.50;32.00;;;;;22.09;27.82;102278.19;5138363;27;8836;-75
2021/03/28 13:06:55;;;;;;;;;36.50;33.75;;;;;21.91;27.52;102269.31;5140173;27;8815;-77
2021/03/28 13:09:51;;;;;;;;;25.75;25.75;;;;;22.12;27.15;102269.78;5142071;27;8844;-77
2021/03/28 13:12:56;;;;;;;;;30.00;29.50;;;;;22.28;27.11;102264.06;5144445;27;8812;-77
2021/03/28 13:16:00;;;;;;;;;31.25;30.50;;;;;22.51;26.29;102266.09;5140368;27;8833;-77
2021/03/28 13:18:58;;;;;;;;;38.00;32.50;;;;;22.08;25.89;102268.91;5135324;27;9540;-77
2021/03/28 13:22:23;;;;;;;;;31.75;30.75;;;;;22.45;26.08;102262.75;5143487;27;8822;-75
2021/03/28 13:25:31;;;;;;;;;40.25;34.00;;;;;22.45;26.17;102260.75;5142281;27;8854;-76
2021/03/28 13:28:27;;;;;;;;;32.75;30.50;;;;;22.44;25.26;102253.47;5130287;27;8905;-77
2021/03/28 13:31:33;;;;;;;;;26.50;26.50;;;;;23.08;24.56;102253.81;5145279;27;8888;-76
2021/03/28 13:34:47;;;;;;;;;27.00;27.00;;;;;22.61;25.45;102249.34;5142212;27;8826;-75
2021/03/28 13:38:16;;;;;;;;;30.75;30.00;;;;;22.59;25.79;102248.91;5145114;27;8829;-76
2021/03/28 13:40:53;;;;;;;;;27.00;27.00;;;;;22.54;25.74;102239.94;5147685;27;8819;-76
2021/03/28 13:43:49;;;;;;;;;36.00;33.25;;;;;22.75;23.86;102227.03;5142926;27;8837;-78
2021/03/28 13:46:48;;;;;;;;;36.25;32.75;;;;;22.53;23.99;102236.31;5143914;27;8839;-77
2021/03/28 13:49:52;;;;;;;;;34.50;32.50;;;;;22.41;24.68;102242.16;5146635;27;8837;-78
2021/03/28 13:52:26;;;;;;;;;33.25;31.75;;;;;21.89;24.21;102240.72;5145286;27;8817;-77
2021/03/28 13:55:09;;;;;;;;;27.50;27.50;;;;;21.93;25.45;102238.81;5145213;27;8928;-78
2021/03/28 13:57:50;;;;;;;;;30.50;29.75;;;;;21.71;25.99;102234.72;5142730;27;8955;-77
2021/03/28 14:00:53;;;;;;;;;31.50;30.50;;;;;21.67;25.65;102244.28;5146801;27;8819;-77
2021/03/28 14:03:36;;;;;;;;;31.50;30.50;;;;;21.08;25.75;102226.44;5144993;27;8821;-77
2021/03/28 14:06:36;;;;;;;;;30.50;29.75;;;;;21.15;25.58;102229.41;5139593;27;8862;-78
2021/03/28 14:09:38;;;;;;;;;31.50;30.50;;;;;20.88;26.06;102241.63;5143254;27;8841;-77
2021/03/28 14:12:39;;;;;;;;;31.50;30.25;;;;;20.29;26.64;102232.03;5135508;27;8836;-77
2021/03/28 14:15:37;;;;;;;;;29.75;29.75;;;;;20.03;26.93;102240.97;5133412;27;8848;-76
2021/03/28 14:18:45;;;;;;;;;32.00;30.75;;;;;19.29;27.90;102229.13;5141972;27;8827;-79
2021/03/28 14:21:42;;;;;;;;;34.00;32.75;;;;;19.37;28.28;102233.78;5143738;27;9513;-77
2021/03/28 14:24:43;;;;;;;;;28.50;28.25;;;;;18.41;29.80;102229.81;5141833;27;8949;-77
2021/03/28 14:27:28;;;;;;;;;37.50;33.75;;;;;18.37;29.67;102228.84;5143437;27;8885;-76
2021/03/28 14:30:34;;;;;;;;;26.67;26.67;;;;;17.85;30.91;102235.78;5142341;27;8831;-76
2021/03/28 14:33:54;;;;;;;;;36.50;34.25;;;;;17.81;30.56;102228.44;5143665;27;8934;-79